createdAt,value
2022-11-14T00:01:42.151Z,41.53
2022-11-14T00:04:03.008Z,43.30
2022-11-14T00:06:23.935Z,42.97
2022-11-14T00:08:45.056Z,41.50
2022-11-14T00:11:05.815Z,41.73
2022-11-14T00:13:26.347Z,39.23
2022-11-14T00:15:54.194Z,40.40
2022-11-14T00:18:14.885Z,38.00
2022-11-14T00:20:35.813Z,41.50
2022-11-14T00:22:56.305Z,40.13
2022-11-14T00:25:17.018Z,42.07
2022-11-14T00:27:37.647Z,41.47
2022-11-14T00:29:58.471Z,42.57
2022-11-14T00:32:21.284Z,44.47
2022-11-14T00:34:41.853Z,41.50
2022-11-14T00:37:02.469Z,42.93
2022-11-14T00:39:23.204Z,40.23
2022-11-14T00:41:43.846Z,41.90
2022-11-14T00:44:04.812Z,43.23
2022-11-14T00:46:25.207Z,44.40
2022-11-14T00:48:45.942Z,40.50
2022-11-14T00:51:06.883Z,40.73
2022-11-14T00:53:27.564Z,40.17
2022-11-14T00:55:48.063Z,42.13
2022-11-14T00:58:09.306Z,40.17
2022-11-14T01:00:30.074Z,41.63
2022-11-14T01:02:51.054Z,41.83
2022-11-14T01:05:11.768Z,40.70
2022-11-14T01:07:32.245Z,40.27
2022-11-14T01:09:52.955Z,41.63
2022-11-14T01:12:13.608Z,39.50
2022-11-14T01:14:34.319Z,38.70
2022-11-14T01:16:55.184Z,42.03
2022-11-14T01:19:15.960Z,44.13
2022-11-14T01:21:36.830Z,43.23
2022-11-14T01:23:57.664Z,45.47
2022-11-14T01:26:18.301Z,43.97
2022-11-14T01:28:40.005Z,45.67
2022-11-14T01:31:11.627Z,44.83
2022-11-14T01:33:31.926Z,42.57
2022-11-14T01:35:52.443Z,44.90
2022-11-14T01:38:14.919Z,44.67
2022-11-14T01:40:41.884Z,46.33
2022-11-14T01:43:11.766Z,44.97
2022-11-14T01:45:53.625Z,42.20
2022-11-14T01:48:28.912Z,43.97
2022-11-14T01:50:55.564Z,41.03
2022-11-14T01:53:16.332Z,42.30
2022-11-14T01:55:36.732Z,41.77
2022-11-14T01:57:58.053Z,42.33
2022-11-14T02:00:18.640Z,42.63
2022-11-14T02:02:39.406Z,45.87
2022-11-14T02:05:06.386Z,43.83
2022-11-14T02:07:29.257Z,41.70
2022-11-14T02:09:50.384Z,39.90
2022-11-14T02:12:14.186Z,41.93
2022-11-14T02:14:36.223Z,43.67
2022-11-14T02:17:27.458Z,42.80
2022-11-14T02:19:47.409Z,42.10
2022-11-14T02:22:07.942Z,42.27
2022-11-14T02:24:28.720Z,42.47
2022-11-14T02:26:50.451Z,42.70
2022-11-14T02:29:12.117Z,42.00
2022-11-14T02:31:33.146Z,42.53
2022-11-14T02:33:53.691Z,41.67
2022-11-14T02:36:14.510Z,44.47
2022-11-14T02:38:35.451Z,40.93
2022-11-14T02:40:56.064Z,41.57
2022-11-14T02:43:16.864Z,44.43
2022-11-14T02:45:37.628Z,40.90
2022-11-14T02:47:58.093Z,44.63
2022-11-14T02:50:19.641Z,42.90
2022-11-14T02:52:40.227Z,43.43
2022-11-14T02:55:00.944Z,42.00
2022-11-14T02:57:21.730Z,43.03
2022-11-14T02:59:42.527Z,44.37
2022-11-14T03:02:03.650Z,50.07
2022-11-14T03:04:24.186Z,43.73
2022-11-14T03:06:45.008Z,44.20
2022-11-14T03:09:05.886Z,49.50
2022-11-14T03:11:26.206Z,43.37
2022-11-14T03:13:46.794Z,41.77
2022-11-14T03:16:09.839Z,40.70
2022-11-14T03:18:30.989Z,43.73
2022-11-14T03:20:51.527Z,45.20
2022-11-14T03:23:12.371Z,42.07
2022-11-14T03:25:33.271Z,47.63
2022-11-14T03:27:53.740Z,45.00
2022-11-14T03:30:14.815Z,42.17
2022-11-14T03:32:35.261Z,45.50
2022-11-14T03:34:56.073Z,44.70
2022-11-14T03:37:16.599Z,46.93
2022-11-14T03:39:37.557Z,42.57
2022-11-14T03:41:58.108Z,44.40
2022-11-14T03:44:18.680Z,47.77
2022-11-14T03:46:39.183Z,46.67
2022-11-14T03:48:59.744Z,54.80
2022-11-14T03:51:20.562Z,43.00
2022-11-14T03:53:41.026Z,44.90
2022-11-14T03:56:01.869Z,42.90
2022-11-14T03:58:22.764Z,45.87
2022-11-14T04:00:43.397Z,43.40
2022-11-14T04:03:04.871Z,40.70
2022-11-14T04:05:25.795Z,43.00
2022-11-14T04:07:46.614Z,45.17
2022-11-14T04:10:07.898Z,44.07
2022-11-14T04:12:28.741Z,45.00
2022-11-14T04:14:49.454Z,46.70
2022-11-14T04:17:10.554Z,44.83
2022-11-14T04:19:31.042Z,41.70
2022-11-14T04:21:51.950Z,40.23
2022-11-14T04:24:12.769Z,42.73
2022-11-14T04:26:33.621Z,45.07
2022-11-14T04:28:54.111Z,41.43
2022-11-14T04:31:14.995Z,43.27
2022-11-14T04:33:35.502Z,41.17
2022-11-14T04:35:55.984Z,39.80
2022-11-14T04:38:17.077Z,44.27
2022-11-14T04:40:37.867Z,41.00
2022-11-14T04:42:58.600Z,38.70
2022-11-14T04:45:19.654Z,42.30
2022-11-14T04:47:42.287Z,40.70
2022-11-14T04:50:04.029Z,40.53
2022-11-14T04:52:24.947Z,38.50
2022-11-14T04:54:45.717Z,41.07
2022-11-14T04:57:06.607Z,39.57
2022-11-14T04:59:27.356Z,39.60
2022-11-14T05:01:48.275Z,38.00
2022-11-14T05:04:08.824Z,37.53
2022-11-14T05:06:29.567Z,36.93
2022-11-14T05:08:50.537Z,39.73
2022-11-14T05:11:19.339Z,34.93
2022-11-14T05:13:40.271Z,35.53
2022-11-14T05:16:01.550Z,36.13
2022-11-14T05:18:22.178Z,40.50
2022-11-14T05:20:43.402Z,34.50
2022-11-14T05:23:04.500Z,34.73
2022-11-14T05:25:25.120Z,34.70
2022-11-14T05:27:45.961Z,40.67
2022-11-14T05:30:07.351Z,38.80
2022-11-14T05:32:27.894Z,38.27
2022-11-14T05:34:48.614Z,35.93
2022-11-14T05:37:09.494Z,37.97
2022-11-14T05:39:30.681Z,35.10
2022-11-14T05:41:51.595Z,34.77
2022-11-14T05:44:12.409Z,36.20
2022-11-14T05:46:33.173Z,36.40
2022-11-14T05:48:54.048Z,35.17
2022-11-14T05:51:14.922Z,37.27
2022-11-14T05:53:35.843Z,36.60
2022-11-14T05:56:00.770Z,36.17
2022-11-14T05:58:22.012Z,35.50
2022-11-14T06:00:50.777Z,38.30
2022-11-14T06:03:15.095Z,34.30
2022-11-14T06:05:36.563Z,36.07
2022-11-14T06:07:58.508Z,34.80
2022-11-14T06:10:18.902Z,36.67
2022-11-14T06:12:40.206Z,35.30
2022-11-14T06:15:00.901Z,38.03
2022-11-14T06:17:21.664Z,37.57
2022-11-14T06:19:42.486Z,34.70
2022-11-14T06:22:03.200Z,33.53
2022-11-14T06:24:23.754Z,34.50
2022-11-14T06:26:44.512Z,34.57
2022-11-14T06:29:05.181Z,34.10
2022-11-14T06:31:26.500Z,31.90
2022-11-14T06:33:47.268Z,32.30
2022-11-14T06:36:08.917Z,32.33
2022-11-14T06:38:31.784Z,35.30
2022-11-14T06:40:52.993Z,33.00
2022-11-14T06:43:13.895Z,31.67
2022-11-14T06:45:34.484Z,31.93
2022-11-14T06:47:59.078Z,30.40
2022-11-14T06:50:19.596Z,31.40
2022-11-14T06:52:40.508Z,31.53
2022-11-14T06:55:01.340Z,31.23
2022-11-14T06:57:22.245Z,30.33
2022-11-14T06:59:43.104Z,29.30
2022-11-14T07:02:04.081Z,33.10
2022-11-14T07:04:24.680Z,32.33
2022-11-14T07:06:45.498Z,29.30
2022-11-14T07:09:06.665Z,29.00
2022-11-14T07:11:29.684Z,33.27
2022-11-14T07:13:54.682Z,32.90
2022-11-14T07:16:15.529Z,29.97
2022-11-14T07:18:36.011Z,29.70
2022-11-14T07:21:05.850Z,31.47
2022-11-14T07:23:27.274Z,30.17
2022-11-14T07:25:48.741Z,31.97
2022-11-14T07:28:09.495Z,31.67
2022-11-14T07:30:30.435Z,32.07
2022-11-14T07:32:58.244Z,27.83
2022-11-14T07:35:19.163Z,30.17
2022-11-14T07:37:39.641Z,31.40
2022-11-14T07:40:00.572Z,32.03
2022-11-14T07:42:21.648Z,32.23
2022-11-14T07:44:42.436Z,27.70
2022-11-14T07:47:03.589Z,26.43
2022-11-14T07:49:24.363Z,24.30
2022-11-14T07:51:45.263Z,26.47
2022-11-14T07:54:06.212Z,22.80
2022-11-14T07:56:27.134Z,23.40
2022-11-14T07:58:48.043Z,21.97
2022-11-14T08:01:11.804Z,21.70
2022-11-14T08:03:33.054Z,23.30
2022-11-14T08:06:05.298Z,22.03
2022-11-14T08:08:25.781Z,19.27
2022-11-14T08:10:46.909Z,20.07
2022-11-14T08:13:31.025Z,20.43
2022-11-14T08:15:48.690Z,21.30
2022-11-14T08:18:09.501Z,21.83
2022-11-14T08:20:30.225Z,19.67
2022-11-14T08:22:50.973Z,20.83
2022-11-14T08:25:11.725Z,21.50
2022-11-14T08:27:32.248Z,19.57
2022-11-14T08:29:53.007Z,19.33
2022-11-14T08:32:13.874Z,18.13
2022-11-14T08:34:34.748Z,19.13
2022-11-14T08:36:57.163Z,19.07
2022-11-14T08:39:18.122Z,17.03
2022-11-14T08:41:38.792Z,18.27
2022-11-14T08:43:59.533Z,17.80
2022-11-14T08:46:20.347Z,15.93
2022-11-14T08:48:40.883Z,17.63
2022-11-14T08:51:05.676Z,17.47
2022-11-14T08:53:26.529Z,18.03
2022-11-14T08:55:48.362Z,17.13
2022-11-14T08:58:09.052Z,17.20
2022-11-14T09:00:29.947Z,16.20
2022-11-14T09:02:50.886Z,17.73
2022-11-14T09:05:11.517Z,16.10
2022-11-14T09:07:32.721Z,15.83
2022-11-14T09:09:53.478Z,16.40
2022-11-14T09:12:14.629Z,16.20
2022-11-14T09:14:35.437Z,16.87
2022-11-14T09:16:56.240Z,16.40
2022-11-14T09:19:16.995Z,15.67
2022-11-14T09:21:37.715Z,16.40
2022-11-14T09:24:01.735Z,16.40
2022-11-14T09:26:22.893Z,17.60
2022-11-14T09:28:43.621Z,18.33
2022-11-14T09:31:06.791Z,16.50
2022-11-14T09:33:27.843Z,16.63
2022-11-14T09:35:48.665Z,17.03
2022-11-14T09:38:11.301Z,15.53
2022-11-14T09:40:41.701Z,16.03
2022-11-14T09:43:40.812Z,15.57
2022-11-14T09:46:01.690Z,13.67
2022-11-14T09:48:25.948Z,15.03
2022-11-14T09:50:53.950Z,16.10
2022-11-14T09:53:23.146Z,15.10
2022-11-14T09:55:43.769Z,14.83
2022-11-14T09:58:05.329Z,15.10
2022-11-14T10:00:29.457Z,14.13
2022-11-14T10:03:35.244Z,14.20
2022-11-14T10:05:55.683Z,15.57
2022-11-14T10:08:34.610Z,14.40
2022-11-14T10:10:58.857Z,14.17
2022-11-14T10:13:39.694Z,13.67
2022-11-14T10:16:19.952Z,14.20
2022-11-14T10:18:48.636Z,14.80
2022-11-14T10:21:28.051Z,14.30
2022-11-14T10:24:13.667Z,13.90
2022-11-14T10:26:38.580Z,13.80
2022-11-14T10:29:05.217Z,12.73
2022-11-14T10:31:26.180Z,12.57
2022-11-14T10:33:50.066Z,12.60
2022-11-14T10:36:34.851Z,13.43
2022-11-14T10:39:16.910Z,12.10
2022-11-14T10:44:22.847Z,11.70
2022-11-14T10:46:50.245Z,12.10
2022-11-14T10:49:20.823Z,12.77
2022-11-14T10:51:47.081Z,12.97
2022-11-14T10:54:15.822Z,13.30
2022-11-14T10:56:47.372Z,13.20
2022-11-14T10:59:09.136Z,11.63
2022-11-14T11:01:50.266Z,15.10
2022-11-14T11:04:21.062Z,13.73
2022-11-14T11:06:41.569Z,14.13
2022-11-14T11:09:26.798Z,14.23
2022-11-14T11:11:58.790Z,12.73
2022-11-14T11:14:19.875Z,13.73
2022-11-14T11:16:40.317Z,14.87
2022-11-14T11:19:15.623Z,13.63
2022-11-14T11:21:48.056Z,14.43
2022-11-14T11:24:09.318Z,16.00
2022-11-14T11:26:31.772Z,14.40
2022-11-14T11:29:10.424Z,15.50
2022-11-14T11:31:52.874Z,15.40
2022-11-14T11:34:13.661Z,14.53
2022-11-14T11:36:39.692Z,15.80
2022-11-14T11:39:00.218Z,15.40
2022-11-14T11:42:07.550Z,14.47
2022-11-14T11:44:12.676Z,14.03
2022-11-14T11:46:39.161Z,14.23
2022-11-14T11:49:05.920Z,15.20
2022-11-14T11:51:27.094Z,15.73
2022-11-14T11:54:09.294Z,14.70
2022-11-14T11:56:33.693Z,13.73
2022-11-14T11:59:15.073Z,14.00
2022-11-14T12:01:35.645Z,14.63
2022-11-14T12:03:56.270Z,14.90
2022-11-14T12:06:24.836Z,13.97
2022-11-14T12:09:07.320Z,13.67
2022-11-14T12:11:31.125Z,13.00
2022-11-14T12:14:36.189Z,13.90
2022-11-14T12:17:32.014Z,14.53
2022-11-14T12:19:55.355Z,15.30
2022-11-14T12:22:41.096Z,14.50
2022-11-14T12:25:20.156Z,14.63
2022-11-14T12:27:55.091Z,14.90
2022-11-14T12:30:23.877Z,13.90
2022-11-14T12:32:55.109Z,15.07
2022-11-14T12:35:20.948Z,14.60
2022-11-14T12:37:51.301Z,13.90
2022-11-14T12:40:25.957Z,14.13
2022-11-14T12:42:49.631Z,14.87
2022-11-14T12:45:41.110Z,14.03
2022-11-14T12:48:15.360Z,14.50
2022-11-14T12:50:41.595Z,14.10
2022-11-14T12:53:02.236Z,13.60
2022-11-14T12:55:26.206Z,14.30
2022-11-14T12:58:07.207Z,14.27
2022-11-14T13:00:28.385Z,14.10
2022-11-14T13:02:57.661Z,14.80
2022-11-14T13:05:40.671Z,14.73
2022-11-14T13:08:27.876Z,15.60
2022-11-14T13:10:48.274Z,14.80
2022-11-14T13:13:33.040Z,14.33
2022-11-14T13:16:13.093Z,15.23
2022-11-14T13:19:03.175Z,14.57
2022-11-14T13:21:45.889Z,15.30
2022-11-14T13:24:07.098Z,13.80
2022-11-14T13:26:27.538Z,14.00
2022-11-14T13:28:49.273Z,15.43
2022-11-14T13:31:16.221Z,15.10
2022-11-14T13:33:49.875Z,14.97
2022-11-14T13:36:34.925Z,14.70
2022-11-14T13:39:21.883Z,13.00
2022-11-14T13:41:51.777Z,14.70
2022-11-14T13:44:37.008Z,15.93
2022-11-14T13:47:04.304Z,14.60
2022-11-14T13:49:43.236Z,14.63
2022-11-14T13:52:05.291Z,14.90
2022-11-14T13:54:26.062Z,13.93
2022-11-14T13:57:05.375Z,15.93
2022-11-14T13:59:46.495Z,16.23
2022-11-14T14:02:16.109Z,15.17
2022-11-14T14:05:01.715Z,16.90
2022-11-14T14:07:28.094Z,16.67
2022-11-14T14:10:24.841Z,15.67
2022-11-14T14:13:00.831Z,16.50
2022-11-14T14:15:45.669Z,15.97
2022-11-14T14:18:12.094Z,16.20
2022-11-14T14:20:38.801Z,15.30
2022-11-14T14:23:02.731Z,16.80
2022-11-14T14:25:56.317Z,17.53
2022-11-14T14:28:38.661Z,17.07
2022-11-14T14:31:08.227Z,16.10
2022-11-14T14:33:31.644Z,16.40
2022-11-14T14:35:53.219Z,16.80
2022-11-14T14:38:25.777Z,16.43
2022-11-14T14:40:47.613Z,16.70
2022-11-14T14:43:43.144Z,17.40
2022-11-14T14:46:03.752Z,17.13
2022-11-14T14:48:30.314Z,18.90
2022-11-14T14:50:55.606Z,16.77
2022-11-14T14:53:28.692Z,16.77
2022-11-14T14:56:14.186Z,17.20
2022-11-14T14:58:35.865Z,18.47
2022-11-14T15:01:02.846Z,16.80
2022-11-14T15:03:24.842Z,17.23
2022-11-14T15:05:45.532Z,20.87
2022-11-14T15:08:06.566Z,20.63
2022-11-14T15:10:30.808Z,19.43
2022-11-14T15:12:53.113Z,20.00
2022-11-14T15:15:15.958Z,19.20
2022-11-14T15:17:37.034Z,19.17
2022-11-14T15:19:57.654Z,18.47
2022-11-14T15:22:18.103Z,20.93
2022-11-14T15:24:38.680Z,21.47
2022-11-14T15:27:04.148Z,21.03
2022-11-14T15:29:26.732Z,19.50
2022-11-14T15:31:56.438Z,20.27
2022-11-14T15:34:37.429Z,18.83
2022-11-14T15:37:10.124Z,20.87
2022-11-14T15:39:30.650Z,22.73
2022-11-14T15:42:19.966Z,21.30
2022-11-14T15:44:42.371Z,21.40
2022-11-14T15:47:03.890Z,19.80
2022-11-14T15:49:25.967Z,20.77
2022-11-14T15:51:58.030Z,20.93
2022-11-14T15:54:30.551Z,19.50
2022-11-14T15:56:51.823Z,19.93
2022-11-14T15:59:12.280Z,18.93
2022-11-14T16:01:33.017Z,18.97
2022-11-14T16:03:53.659Z,21.33
2022-11-14T16:06:14.345Z,18.57
2022-11-14T16:08:35.060Z,18.00
2022-11-14T16:10:55.623Z,20.27
2022-11-14T16:13:16.433Z,19.43
2022-11-14T16:15:37.015Z,20.13
2022-11-14T16:17:57.868Z,20.47
2022-11-14T16:20:23.924Z,20.90
2022-11-14T16:22:49.228Z,20.53
2022-11-14T16:25:18.848Z,21.50
2022-11-14T16:27:39.409Z,21.83
2022-11-14T16:30:00.136Z,19.80
2022-11-14T16:32:20.812Z,23.67
2022-11-14T16:34:41.453Z,20.60
2022-11-14T16:37:02.929Z,21.10
2022-11-14T16:39:23.260Z,20.40
2022-11-14T16:41:44.026Z,20.50
2022-11-14T16:44:04.870Z,20.70
2022-11-14T16:46:25.526Z,20.63
2022-11-14T16:48:46.187Z,18.57
2022-11-14T16:51:20.134Z,20.43
2022-11-14T16:53:47.746Z,20.07
2022-11-14T16:56:11.365Z,20.50
2022-11-14T16:58:32.007Z,18.70
2022-11-14T17:00:52.566Z,19.60
2022-11-14T17:03:13.754Z,20.80
2022-11-14T17:05:34.337Z,20.20
2022-11-14T17:07:56.904Z,20.20
2022-11-14T17:10:17.679Z,20.63
2022-11-14T17:12:38.538Z,20.43
2022-11-14T17:14:59.141Z,20.97
2022-11-14T17:17:19.741Z,20.90
2022-11-14T17:19:45.904Z,19.57
2022-11-14T17:22:06.617Z,21.10
2022-11-14T17:24:31.221Z,20.50
2022-11-14T17:26:52.138Z,19.20
2022-11-14T17:29:12.898Z,21.13
2022-11-14T17:31:37.606Z,20.87
2022-11-14T17:34:00.344Z,22.47
2022-11-14T17:36:22.388Z,22.70
2022-11-14T17:38:43.186Z,21.30
2022-11-14T17:41:07.290Z,21.33
2022-11-14T17:43:27.993Z,22.40
2022-11-14T17:45:56.208Z,23.27
2022-11-14T17:48:16.872Z,22.10
2022-11-14T17:50:40.648Z,22.03
2022-11-14T17:53:01.385Z,20.47
2022-11-14T17:55:22.049Z,21.50
2022-11-14T17:57:42.790Z,23.13
2022-11-14T18:00:04.964Z,20.00
2022-11-14T18:02:25.334Z,20.40
2022-11-14T18:04:47.080Z,21.47
2022-11-14T18:07:07.732Z,20.40
2022-11-14T18:09:29.470Z,20.33
2022-11-14T18:11:50.081Z,20.07
2022-11-14T18:14:12.046Z,21.03
2022-11-14T18:16:57.414Z,20.67
2022-11-14T18:19:12.679Z,20.47
2022-11-14T18:21:33.302Z,21.13
2022-11-14T18:23:56.371Z,20.97
2022-11-14T18:26:18.146Z,20.37
2022-11-14T18:28:38.939Z,19.27
2022-11-14T18:30:59.598Z,21.63
2022-11-14T18:33:20.281Z,20.17
2022-11-14T18:35:40.822Z,21.07
2022-11-14T18:38:01.626Z,20.73
2022-11-14T18:40:22.476Z,20.97
2022-11-14T18:42:43.172Z,19.63
2022-11-14T18:45:04.010Z,19.77
2022-11-14T18:47:24.415Z,20.13
2022-11-14T18:49:45.086Z,21.27
2022-11-14T18:52:12.717Z,22.53
2022-11-14T18:54:37.969Z,21.93
2022-11-14T18:56:58.524Z,21.27
2022-11-14T18:59:19.335Z,20.20
2022-11-14T19:01:40.021Z,20.37
2022-11-14T19:04:05.316Z,20.57
2022-11-14T19:06:26.886Z,20.80
2022-11-14T19:08:47.244Z,20.13
2022-11-14T19:11:32.789Z,20.63
2022-11-14T19:13:53.065Z,20.63
2022-11-14T19:16:13.506Z,20.43
2022-11-14T19:18:34.216Z,21.97
2022-11-14T19:21:03.792Z,22.70
2022-11-14T19:23:24.713Z,23.10
2022-11-14T19:25:45.283Z,22.80
2022-11-14T19:28:06.258Z,22.20
2022-11-14T19:30:27.060Z,22.60
2022-11-14T19:32:47.805Z,26.60
2022-11-14T19:35:09.494Z,25.20
2022-11-14T19:37:30.359Z,27.50
2022-11-14T19:39:55.310Z,25.73
2022-11-14T19:42:16.052Z,26.53
2022-11-14T19:44:36.497Z,24.80
2022-11-14T19:46:57.178Z,25.93
2022-11-14T19:49:17.872Z,25.00
2022-11-14T19:51:38.653Z,24.93
2022-11-14T19:54:01.027Z,25.67
2022-11-14T19:56:24.342Z,24.33
2022-11-14T19:58:48.049Z,22.57
2022-11-14T20:01:14.593Z,22.57
2022-11-14T20:03:35.837Z,24.33
2022-11-14T20:05:56.461Z,24.93
2022-11-14T20:08:17.093Z,25.67
2022-11-14T20:10:47.754Z,23.83
2022-11-14T20:13:08.777Z,24.10
2022-11-14T20:15:29.653Z,24.17
2022-11-14T20:17:50.422Z,23.87
2022-11-14T20:20:11.323Z,26.00
2022-11-14T20:22:32.121Z,26.53
2022-11-14T20:24:53.028Z,24.30
2022-11-14T20:27:13.506Z,28.30
2022-11-14T20:29:34.341Z,25.13
2022-11-14T20:31:55.098Z,25.93
2022-11-14T20:34:16.037Z,24.23
2022-11-14T20:37:08.863Z,22.30
2022-11-14T20:39:17.765Z,21.30
2022-11-14T20:41:38.441Z,20.10
2022-11-14T20:43:58.996Z,20.30
2022-11-14T20:46:21.708Z,20.90
2022-11-14T20:48:43.057Z,20.30
2022-11-14T20:51:17.621Z,21.50
2022-11-14T20:53:38.710Z,22.63
2022-11-14T20:56:00.111Z,20.50
2022-11-14T20:58:21.141Z,21.67
2022-11-14T21:00:41.693Z,22.47
2022-11-14T21:03:02.406Z,24.33
2022-11-14T21:05:23.788Z,23.13
2022-11-14T21:07:44.469Z,23.03
2022-11-14T21:10:24.230Z,20.17
2022-11-14T21:13:05.058Z,20.97
2022-11-14T21:15:25.479Z,21.77
2022-11-14T21:17:46.163Z,22.17
2022-11-14T21:20:08.068Z,19.30
2022-11-14T21:22:28.975Z,20.20
2022-11-14T21:24:49.721Z,20.03
2022-11-14T21:27:13.075Z,19.80
2022-11-14T21:29:33.766Z,21.20
2022-11-14T21:31:55.732Z,19.80
2022-11-14T21:34:18.027Z,20.33
2022-11-14T21:36:44.882Z,20.80
2022-11-14T21:39:06.566Z,21.70
2022-11-14T21:41:28.664Z,21.90
2022-11-14T21:43:53.521Z,21.23
2022-11-14T21:46:17.525Z,21.67
2022-11-14T21:48:41.479Z,22.53
2022-11-14T21:51:08.507Z,24.00
2022-11-14T21:53:29.523Z,22.33
2022-11-14T21:55:50.511Z,22.80
2022-11-14T21:58:12.874Z,22.30
2022-11-14T22:00:33.319Z,23.33
2022-11-14T22:03:16.293Z,23.77
2022-11-14T22:05:39.214Z,20.80
2022-11-14T22:08:00.044Z,22.13
2022-11-14T22:10:20.886Z,21.10
2022-11-14T22:12:41.618Z,22.17
2022-11-14T22:15:02.443Z,21.60
2022-11-14T22:17:23.152Z,21.60
2022-11-14T22:19:43.965Z,22.80
2022-11-14T22:22:04.761Z,22.60
2022-11-14T22:24:25.583Z,22.10
2022-11-14T22:26:46.400Z,23.60
2022-11-14T22:29:07.838Z,21.20
2022-11-14T22:31:28.479Z,21.93
2022-11-14T22:33:51.484Z,22.27
2022-11-14T22:36:18.950Z,22.10
2022-11-14T22:38:40.269Z,21.67
2022-11-14T22:41:01.957Z,20.20
2022-11-14T22:43:22.444Z,20.80
2022-11-14T22:45:43.268Z,22.10
2022-11-14T22:48:04.217Z,22.43
2022-11-14T22:50:24.922Z,23.70
2022-11-14T22:52:45.587Z,21.17
2022-11-14T22:55:06.743Z,23.17
2022-11-14T22:57:27.396Z,20.83
2022-11-14T22:59:48.204Z,21.77
2022-11-14T23:02:09.075Z,21.93
2022-11-14T23:04:30.252Z,20.80
2022-11-14T23:06:51.229Z,22.03
2022-11-14T23:09:12.028Z,23.50
2022-11-14T23:11:33.141Z,24.17
2022-11-14T23:13:55.791Z,22.20
2022-11-14T23:16:21.432Z,21.43
2022-11-14T23:18:42.414Z,22.80
2022-11-14T23:21:06.836Z,21.20
2022-11-14T23:23:27.910Z,19.93
2022-11-14T23:25:48.410Z,23.00
2022-11-14T23:28:08.928Z,21.27
2022-11-14T23:30:29.705Z,23.27
2022-11-14T23:32:50.445Z,21.60
2022-11-14T23:35:11.364Z,21.47
2022-11-14T23:37:32.167Z,20.30
2022-11-14T23:39:52.884Z,21.70
2022-11-14T23:42:13.930Z,22.00
2022-11-14T23:44:34.670Z,21.97
2022-11-14T23:46:55.404Z,22.20
2022-11-14T23:49:16.333Z,22.70
2022-11-14T23:51:37.314Z,22.60
2022-11-14T23:53:57.686Z,20.50
2022-11-14T23:56:18.219Z,20.37
2022-11-14T23:58:39.305Z,21.77
